createdAt,value
2019-02-24T00:00:56.155Z,27.68
2019-02-24T00:03:22.472Z,27.73
2019-02-24T00:05:48.845Z,27.64
2019-02-24T00:08:15.410Z,27.75
2019-02-24T00:10:41.816Z,27.58
2019-02-24T00:13:08.147Z,27.74
2019-02-24T00:15:34.476Z,28.11
2019-02-24T00:18:00.748Z,27.91
2019-02-24T00:20:27.106Z,27.72
2019-02-24T00:22:53.455Z,27.76
2019-02-24T00:25:19.825Z,27.73
2019-02-24T00:27:46.268Z,27.75
2019-02-24T00:30:12.599Z,27.63
2019-02-24T00:32:38.962Z,27.91
2019-02-24T00:35:05.394Z,27.88
2019-02-24T00:37:31.738Z,27.86
2019-02-24T00:39:58.075Z,28.13
2019-02-24T00:42:24.441Z,27.91
2019-02-24T00:44:50.768Z,27.73
2019-02-24T00:47:17.110Z,27.60
2019-02-24T00:49:45.418Z,27.79
2019-02-24T00:52:11.755Z,28.04
2019-02-24T00:54:38.084Z,28.02
2019-02-24T00:57:04.420Z,27.97
2019-02-24T00:59:30.758Z,27.98
2019-02-24T01:01:57.133Z,27.84
2019-02-24T01:04:23.498Z,27.57
2019-02-24T01:06:49.839Z,27.90
2019-02-24T01:09:16.327Z,27.68
2019-02-24T01:11:42.662Z,27.78
2019-02-24T01:14:09.013Z,27.89
2019-02-24T01:16:35.376Z,28.05
2019-02-24T01:19:01.764Z,27.80
2019-02-24T01:21:28.166Z,27.82
2019-02-24T01:23:54.492Z,28.20
2019-02-24T01:26:20.822Z,27.92
2019-02-24T01:28:47.157Z,28.00
2019-02-24T01:31:13.523Z,27.87
2019-02-24T01:33:39.855Z,27.99
2019-02-24T01:36:06.182Z,28.09
2019-02-24T01:38:32.557Z,27.93
2019-02-24T01:40:58.961Z,28.05
2019-02-24T01:43:25.344Z,28.21
2019-02-24T01:45:51.778Z,28.18
2019-02-24T01:48:18.047Z,28.02
2019-02-24T01:50:44.431Z,27.89
2019-02-24T01:53:10.791Z,28.05
2019-02-24T01:55:37.193Z,27.82
2019-02-24T01:58:03.588Z,27.89
2019-02-24T02:00:29.903Z,28.08
2019-02-24T02:02:56.235Z,28.07
2019-02-24T02:05:22.597Z,28.24
2019-02-24T02:07:48.930Z,27.86
2019-02-24T02:10:15.279Z,28.05
2019-02-24T02:12:41.612Z,27.73
2019-02-24T02:15:07.991Z,27.73
2019-02-24T02:17:36.867Z,27.58
2019-02-24T02:20:03.199Z,27.93
2019-02-24T02:22:29.674Z,27.96
2019-02-24T02:24:55.971Z,27.96
2019-02-24T02:27:22.368Z,27.52
2019-02-24T02:29:48.698Z,27.84
2019-02-24T02:32:15.068Z,27.73
2019-02-24T02:34:41.475Z,27.74
2019-02-24T02:37:07.801Z,27.74
2019-02-24T02:39:34.132Z,27.85
2019-02-24T02:42:00.476Z,27.82
2019-02-24T02:44:26.889Z,27.58
2019-02-24T02:46:53.227Z,27.34
2019-02-24T02:49:19.595Z,27.76
2019-02-24T02:51:46.117Z,27.50
2019-02-24T02:54:12.638Z,27.76
2019-02-24T02:56:38.968Z,27.93
2019-02-24T02:59:05.306Z,27.68
2019-02-24T03:01:31.704Z,27.99
2019-02-24T03:03:58.072Z,27.99
2019-02-24T03:06:24.406Z,27.82
2019-02-24T03:08:50.728Z,27.99
2019-02-24T03:11:17.081Z,27.55
2019-02-24T03:13:43.457Z,27.92
2019-02-24T03:16:09.800Z,27.88
2019-02-24T03:18:36.136Z,27.63
2019-02-24T03:21:02.463Z,27.99
2019-02-24T03:23:28.792Z,27.92
2019-02-24T03:25:55.131Z,27.81
2019-02-24T03:28:21.467Z,27.86
2019-02-24T03:30:47.842Z,27.98
2019-02-24T03:33:15.588Z,27.75
2019-02-24T03:35:40.539Z,27.81
2019-02-24T03:38:07.004Z,27.83
2019-02-24T03:40:33.330Z,28.20
2019-02-24T03:42:59.666Z,28.03
2019-02-24T03:45:25.999Z,28.11
2019-02-24T03:47:52.333Z,28.03
2019-02-24T03:50:18.670Z,27.97
2019-02-24T03:52:45.075Z,28.05
2019-02-24T03:55:11.413Z,27.97
2019-02-24T03:57:37.910Z,28.02
2019-02-24T04:00:04.236Z,27.89
2019-02-24T04:02:30.596Z,27.98
2019-02-24T04:04:56.950Z,28.02
2019-02-24T04:07:23.279Z,27.93
2019-02-24T04:09:49.606Z,27.84
2019-02-24T04:12:15.940Z,27.86
2019-02-24T04:14:42.275Z,27.86
2019-02-24T04:17:08.606Z,28.07
2019-02-24T04:19:34.954Z,27.80
2019-02-24T04:22:01.339Z,28.12
2019-02-24T04:24:27.688Z,28.15
2019-02-24T04:26:54.030Z,27.81
2019-02-24T04:29:24.865Z,27.77
2019-02-24T04:31:46.795Z,27.89
2019-02-24T04:34:13.110Z,28.08
2019-02-24T04:36:39.507Z,28.09
2019-02-24T04:39:05.837Z,27.99
2019-02-24T04:41:32.168Z,28.10
2019-02-24T04:43:58.546Z,28.25
2019-02-24T04:46:24.842Z,28.31
2019-02-24T04:48:51.188Z,28.15
2019-02-24T04:51:17.513Z,28.35
2019-02-24T04:53:43.901Z,28.36
2019-02-24T04:56:10.272Z,28.02
2019-02-24T04:58:36.662Z,28.04
2019-02-24T05:01:03.014Z,27.94
2019-02-24T05:03:29.381Z,27.95
2019-02-24T05:05:55.721Z,28.21
2019-02-24T05:08:22.050Z,28.26
2019-02-24T05:10:48.380Z,28.24
2019-02-24T05:13:14.715Z,28.24
2019-02-24T05:15:41.089Z,28.07
2019-02-24T05:18:07.466Z,28.07
2019-02-24T05:20:33.874Z,28.14
2019-02-24T05:23:00.194Z,28.28
2019-02-24T05:25:26.536Z,28.38
2019-02-24T05:27:52.978Z,28.05
2019-02-24T05:30:19.360Z,28.15
2019-02-24T05:32:45.691Z,28.35
2019-02-24T05:35:12.021Z,28.20
2019-02-24T05:37:38.351Z,28.36
2019-02-24T05:40:04.729Z,28.43
2019-02-24T05:42:31.171Z,28.39
2019-02-24T05:44:57.496Z,28.24
2019-02-24T05:47:23.904Z,28.02
2019-02-24T05:49:50.461Z,27.93
2019-02-24T05:52:16.814Z,27.94
2019-02-24T05:54:43.167Z,28.08
2019-02-24T05:57:09.502Z,27.40
2019-02-24T05:59:36.004Z,27.16
2019-02-24T06:02:02.393Z,27.04
2019-02-24T06:04:28.717Z,26.76
2019-02-24T06:06:55.050Z,26.78
2019-02-24T06:09:21.399Z,26.58
2019-02-24T06:11:47.726Z,26.63
2019-02-24T06:14:14.125Z,26.66
2019-02-24T06:16:40.421Z,26.47
2019-02-24T06:19:06.862Z,26.45
2019-02-24T06:21:33.201Z,26.64
2019-02-24T06:23:59.536Z,26.33
2019-02-24T06:26:25.908Z,26.31
2019-02-24T06:28:52.239Z,26.30
2019-02-24T06:31:18.597Z,26.30
2019-02-24T06:33:44.928Z,26.24
2019-02-24T06:36:11.294Z,26.07
2019-02-24T06:38:37.687Z,25.93
2019-02-24T06:41:04.044Z,25.94
2019-02-24T06:43:30.387Z,25.95
2019-02-24T06:45:56.719Z,25.92
2019-02-24T06:48:23.063Z,25.90
2019-02-24T06:50:49.408Z,25.88
2019-02-24T06:53:15.781Z,25.87
2019-02-24T06:55:42.116Z,25.86
2019-02-24T06:58:08.487Z,25.90
2019-02-24T07:00:34.820Z,25.99
2019-02-24T07:03:01.149Z,26.16
2019-02-24T07:05:27.508Z,25.90
2019-02-24T07:07:53.886Z,25.89
2019-02-24T07:10:20.223Z,25.74
2019-02-24T07:12:46.625Z,26.11
2019-02-24T07:15:12.893Z,25.90
2019-02-24T07:17:39.222Z,25.80
2019-02-24T07:20:05.561Z,25.96
2019-02-24T07:22:31.928Z,25.98
2019-02-24T07:24:58.244Z,25.95
2019-02-24T07:27:24.608Z,26.02
2019-02-24T07:29:50.985Z,26.08
2019-02-24T07:32:17.315Z,25.98
2019-02-24T07:34:43.666Z,25.87
2019-02-24T07:37:12.993Z,25.93
2019-02-24T07:39:36.466Z,25.89
2019-02-24T07:42:02.792Z,25.92
2019-02-24T07:44:29.133Z,25.78
2019-02-24T07:46:55.426Z,25.81
2019-02-24T07:49:21.787Z,25.86
2019-02-24T07:51:48.163Z,25.76
2019-02-24T07:54:14.493Z,25.72
2019-02-24T07:56:40.888Z,25.69
2019-02-24T07:59:07.216Z,25.70
2019-02-24T08:01:33.616Z,25.74
2019-02-24T08:04:00.036Z,25.87
2019-02-24T08:06:26.300Z,25.73
2019-02-24T08:08:52.638Z,25.86
2019-02-24T08:11:19.027Z,25.78
2019-02-24T08:13:45.356Z,25.93
2019-02-24T08:16:11.696Z,26.10
2019-02-24T08:18:38.036Z,26.38
2019-02-24T08:21:04.430Z,26.09
2019-02-24T08:23:30.765Z,26.27
2019-02-24T08:25:57.209Z,26.06
2019-02-24T08:28:23.528Z,25.86
2019-02-24T08:30:49.873Z,25.89
2019-02-24T08:33:16.250Z,25.94
2019-02-24T08:35:42.579Z,26.10
2019-02-24T08:38:08.956Z,26.09
2019-02-24T08:40:35.297Z,26.23
2019-02-24T08:43:01.677Z,26.17
2019-02-24T08:45:28.012Z,26.18
2019-02-24T08:47:54.340Z,26.27
2019-02-24T08:50:20.674Z,26.33
2019-02-24T08:52:47.030Z,26.17
2019-02-24T08:55:13.447Z,26.18
2019-02-24T08:57:39.794Z,26.14
2019-02-24T09:00:06.123Z,26.28
2019-02-24T09:02:32.520Z,26.18
2019-02-24T09:04:58.899Z,26.59
2019-02-24T09:07:25.212Z,26.70
2019-02-24T09:09:51.689Z,26.60
2019-02-24T09:12:18.041Z,26.32
2019-02-24T09:14:44.429Z,26.89
2019-02-24T09:17:10.760Z,27.21
2019-02-24T09:19:37.086Z,26.91
2019-02-24T09:22:03.442Z,27.23
2019-02-24T09:24:29.881Z,26.69
2019-02-24T09:26:56.288Z,26.85
2019-02-24T09:29:22.617Z,26.94
2019-02-24T09:31:48.966Z,26.99
2019-02-24T09:34:15.402Z,27.05
2019-02-24T09:36:41.751Z,27.12
2019-02-24T09:39:08.073Z,26.99
2019-02-24T09:41:34.454Z,26.91
2019-02-24T09:44:00.783Z,26.99
2019-02-24T09:46:28.237Z,26.93
2019-02-24T09:48:53.425Z,27.21
2019-02-24T09:51:19.854Z,27.23
2019-02-24T09:53:46.125Z,26.96
2019-02-24T09:56:12.587Z,26.97
2019-02-24T09:58:38.926Z,26.96
2019-02-24T10:01:10.743Z,27.00
2019-02-24T10:03:31.591Z,26.92
2019-02-24T10:05:57.918Z,26.97
2019-02-24T10:08:24.332Z,26.99
2019-02-24T10:10:50.680Z,27.10
2019-02-24T10:13:17.047Z,27.02
2019-02-24T10:15:43.529Z,27.11
2019-02-24T10:18:09.871Z,27.01
2019-02-24T10:20:36.206Z,26.83
2019-02-24T10:23:02.530Z,27.20
2019-02-24T10:25:28.930Z,27.61
2019-02-24T10:27:55.316Z,27.11
2019-02-24T10:30:21.716Z,26.97
2019-02-24T10:32:48.044Z,26.96
2019-02-24T10:35:14.421Z,27.01
2019-02-24T10:37:40.788Z,27.07
2019-02-24T10:40:07.122Z,27.44
2019-02-24T10:42:33.456Z,27.47
2019-02-24T10:44:59.785Z,27.08
2019-02-24T10:47:26.292Z,27.09
2019-02-24T10:49:52.600Z,27.21
2019-02-24T10:52:18.941Z,27.15
2019-02-24T10:54:45.310Z,27.39
2019-02-24T10:57:12.974Z,27.24
2019-02-24T10:59:38.098Z,27.13
2019-02-24T11:02:04.427Z,27.09
2019-02-24T11:04:30.837Z,26.92
2019-02-24T11:06:57.119Z,27.06
2019-02-24T11:09:23.623Z,26.84
2019-02-24T11:11:49.969Z,27.21
2019-02-24T11:14:16.368Z,27.19
2019-02-24T11:16:42.693Z,27.26
2019-02-24T11:19:08.961Z,27.15
2019-02-24T11:21:35.292Z,27.33
2019-02-24T11:24:01.696Z,27.21
2019-02-24T11:26:28.014Z,27.03
2019-02-24T11:28:54.367Z,26.86
2019-02-24T11:31:20.699Z,27.04
2019-02-24T11:33:47.031Z,26.92
2019-02-24T11:36:13.358Z,27.17
2019-02-24T11:38:39.726Z,27.35
2019-02-24T11:41:06.058Z,27.34
2019-02-24T11:43:32.457Z,27.20
2019-02-24T11:45:58.830Z,27.14
2019-02-24T11:48:25.158Z,27.27
2019-02-24T11:50:51.476Z,27.05
2019-02-24T11:53:17.767Z,27.04
2019-02-24T11:55:44.085Z,27.02
2019-02-24T11:58:10.423Z,26.89
2019-02-24T12:00:36.798Z,26.92
2019-02-24T12:03:03.143Z,27.11
2019-02-24T12:05:29.473Z,27.15
2019-02-24T12:07:55.821Z,27.08
2019-02-24T12:10:22.241Z,26.93
2019-02-24T12:12:48.710Z,27.05
2019-02-24T12:15:15.089Z,26.82
2019-02-24T12:17:41.434Z,26.87
2019-02-24T12:20:08.025Z,27.12
2019-02-24T12:22:34.355Z,26.95
2019-02-24T12:25:00.717Z,27.18
2019-02-24T12:27:27.053Z,27.32
2019-02-24T12:29:53.398Z,27.28
2019-02-24T12:32:19.725Z,27.21
2019-02-24T12:34:46.091Z,27.28
2019-02-24T12:37:12.445Z,27.21
2019-02-24T12:39:38.807Z,27.41
2019-02-24T12:42:05.104Z,27.28
2019-02-24T12:44:31.439Z,27.31
2019-02-24T12:46:57.802Z,27.29
2019-02-24T12:49:24.142Z,27.16
2019-02-24T12:51:50.476Z,27.21
2019-02-24T12:54:16.805Z,27.21
2019-02-24T12:56:43.135Z,27.27
2019-02-24T12:59:09.520Z,27.29
2019-02-24T13:01:35.851Z,27.21
2019-02-24T13:04:02.188Z,27.08
2019-02-24T13:06:28.528Z,27.29
2019-02-24T13:08:54.879Z,27.24
2019-02-24T13:11:21.239Z,27.38
2019-02-24T13:13:47.553Z,27.26
2019-02-24T13:16:13.909Z,27.18
2019-02-24T13:18:40.287Z,27.09
2019-02-24T13:21:06.629Z,27.06
2019-02-24T13:23:32.977Z,27.08
2019-02-24T13:25:59.318Z,27.09
2019-02-24T13:28:25.655Z,27.10
2019-02-24T13:30:52.088Z,27.15
2019-02-24T13:33:18.420Z,27.18
2019-02-24T13:35:44.839Z,27.07
2019-02-24T13:38:11.164Z,26.91
2019-02-24T13:40:37.476Z,26.92
2019-02-24T13:43:03.776Z,27.20
2019-02-24T13:45:30.284Z,27.05
2019-02-24T13:47:56.638Z,27.07
2019-02-24T13:50:23.031Z,27.08
2019-02-24T13:52:49.370Z,27.03
2019-02-24T13:55:15.711Z,27.10
2019-02-24T13:57:42.061Z,26.94
2019-02-24T14:00:08.538Z,26.99
2019-02-24T14:02:35.008Z,26.97
2019-02-24T14:05:01.306Z,26.90
2019-02-24T14:07:27.659Z,26.82
2019-02-24T14:09:53.933Z,26.53
2019-02-24T14:12:20.255Z,26.88
2019-02-24T14:14:49.070Z,27.20
2019-02-24T14:17:12.981Z,26.85
2019-02-24T14:19:39.311Z,26.86
2019-02-24T14:22:05.767Z,26.59
2019-02-24T14:24:32.222Z,26.88
2019-02-24T14:26:58.552Z,27.53
2019-02-24T14:29:24.874Z,27.18
2019-02-24T14:31:51.200Z,27.28
2019-02-24T14:34:17.543Z,27.31
2019-02-24T14:36:43.946Z,26.99
2019-02-24T14:39:10.227Z,27.50
2019-02-24T14:41:36.558Z,27.31
2019-02-24T14:44:02.880Z,27.18
2019-02-24T14:46:29.218Z,27.24
2019-02-24T14:48:55.553Z,27.40
2019-02-24T14:51:21.894Z,27.28
2019-02-24T14:53:48.221Z,27.50
2019-02-24T14:56:14.551Z,27.31
2019-02-24T14:58:40.897Z,27.21
2019-02-24T15:01:07.248Z,27.34
2019-02-24T15:03:33.632Z,27.37
2019-02-24T15:06:00.042Z,27.32
2019-02-24T15:08:26.373Z,27.16
2019-02-24T15:10:52.702Z,27.39
2019-02-24T15:13:19.031Z,27.21
2019-02-24T15:15:45.364Z,27.21
2019-02-24T15:18:11.689Z,27.28
2019-02-24T15:20:38.019Z,27.25
2019-02-24T15:23:04.417Z,27.28
2019-02-24T15:25:30.748Z,27.43
2019-02-24T15:27:57.090Z,27.29
2019-02-24T15:30:23.431Z,27.27
2019-02-24T15:32:51.896Z,27.39
2019-02-24T15:35:16.110Z,27.34
2019-02-24T15:37:42.492Z,27.25
2019-02-24T15:40:08.782Z,27.29
2019-02-24T15:42:35.157Z,27.25
2019-02-24T15:45:01.445Z,27.19
2019-02-24T15:47:27.793Z,27.25
2019-02-24T15:49:54.149Z,27.37
2019-02-24T15:52:20.481Z,27.30
2019-02-24T15:54:46.867Z,27.30
2019-02-24T15:57:13.193Z,27.20
2019-02-24T15:59:39.553Z,27.19
2019-02-24T16:02:05.905Z,27.27
2019-02-24T16:04:32.260Z,27.36
2019-02-24T16:06:58.596Z,27.26
2019-02-24T16:09:24.950Z,27.29
2019-02-24T16:11:51.432Z,27.34
2019-02-24T16:14:17.776Z,27.28
2019-02-24T16:16:44.120Z,27.30
2019-02-24T16:19:10.468Z,27.21
2019-02-24T16:21:36.802Z,27.33
2019-02-24T16:24:03.129Z,27.28
2019-02-24T16:26:29.466Z,27.34
2019-02-24T16:28:55.793Z,27.40
2019-02-24T16:31:22.126Z,27.25
2019-02-24T16:33:48.510Z,27.39
2019-02-24T16:36:14.841Z,27.21
2019-02-24T16:38:41.297Z,27.33
2019-02-24T16:41:07.653Z,27.21
2019-02-24T16:43:34.022Z,27.38
2019-02-24T16:46:00.417Z,27.34
2019-02-24T16:48:26.733Z,27.19
2019-02-24T16:50:53.067Z,27.41
2019-02-24T16:53:19.410Z,27.54
2019-02-24T16:55:45.807Z,27.55
2019-02-24T16:58:12.348Z,27.66
2019-02-24T17:00:38.701Z,27.69
2019-02-24T17:03:05.072Z,27.79
2019-02-24T17:05:31.533Z,27.85
2019-02-24T17:07:57.975Z,27.82
2019-02-24T17:10:24.322Z,27.89
2019-02-24T17:12:50.700Z,27.91
2019-02-24T17:15:17.046Z,27.81
2019-02-24T17:17:43.375Z,27.86
2019-02-24T17:20:09.815Z,27.87
2019-02-24T17:22:36.095Z,27.79
2019-02-24T17:25:02.463Z,27.82
2019-02-24T17:27:30.053Z,27.95
2019-02-24T17:29:55.268Z,27.77
2019-02-24T17:32:21.612Z,27.85
2019-02-24T17:34:48.004Z,27.82
2019-02-24T17:37:20.102Z,27.99
2019-02-24T17:39:40.659Z,27.91
2019-02-24T17:42:07.059Z,27.89
2019-02-24T17:44:33.543Z,27.86
2019-02-24T17:46:59.891Z,27.96
2019-02-24T17:49:26.258Z,27.82
2019-02-24T17:51:52.592Z,27.95
2019-02-24T17:54:18.931Z,28.05
2019-02-24T17:56:45.314Z,27.96
2019-02-24T17:59:11.614Z,27.91
2019-02-24T18:01:37.997Z,27.92
2019-02-24T18:04:04.362Z,27.89
2019-02-24T18:06:30.710Z,28.02
2019-02-24T18:08:57.104Z,27.82
2019-02-24T18:11:23.509Z,27.99
2019-02-24T18:13:49.877Z,28.05
2019-02-24T18:16:16.246Z,28.15
2019-02-24T18:18:42.659Z,28.09
2019-02-24T18:21:09.004Z,28.03
2019-02-24T18:23:35.334Z,28.23
2019-02-24T18:26:01.680Z,28.01
2019-02-24T18:28:28.047Z,28.21
2019-02-24T18:30:54.405Z,28.16
2019-02-24T18:33:20.813Z,28.22
2019-02-24T18:35:47.132Z,28.26
2019-02-24T18:38:13.527Z,28.29
2019-02-24T18:40:39.883Z,28.31
2019-02-24T18:43:06.212Z,28.47
2019-02-24T18:45:32.602Z,28.19
2019-02-24T18:47:58.951Z,28.25
2019-02-24T18:50:25.285Z,28.28
2019-02-24T18:52:51.657Z,28.37
2019-02-24T18:55:17.995Z,28.36
2019-02-24T18:57:44.376Z,28.43
2019-02-24T19:00:10.736Z,28.40
2019-02-24T19:02:37.136Z,28.31
2019-02-24T19:05:03.488Z,28.44
2019-02-24T19:07:29.822Z,28.49
2019-02-24T19:09:56.194Z,28.44
2019-02-24T19:12:22.536Z,28.50
2019-02-24T19:14:48.922Z,28.53
2019-02-24T19:17:15.330Z,28.53
2019-02-24T19:19:41.677Z,28.53
2019-02-24T19:22:08.059Z,28.55
2019-02-24T19:24:34.568Z,28.56
2019-02-24T19:27:00.949Z,28.72
2019-02-24T19:29:27.297Z,28.76
2019-02-24T19:31:53.745Z,28.66
2019-02-24T19:34:20.043Z,28.66
2019-02-24T19:36:46.374Z,28.65
2019-02-24T19:39:12.762Z,28.82
2019-02-24T19:41:39.082Z,28.63
2019-02-24T19:44:05.462Z,28.61
2019-02-24T19:46:31.894Z,28.67
2019-02-24T19:48:58.178Z,28.73
2019-02-24T19:51:24.501Z,28.68
2019-02-24T19:53:50.879Z,28.74
2019-02-24T19:56:17.255Z,28.86
2019-02-24T19:58:43.604Z,29.02
2019-02-24T20:01:09.978Z,29.12
2019-02-24T20:03:36.353Z,29.05
2019-02-24T20:06:02.669Z,29.08
2019-02-24T20:08:29.030Z,29.05
2019-02-24T20:10:55.351Z,28.86
2019-02-24T20:13:21.671Z,29.08
2019-02-24T20:15:48.059Z,29.02
2019-02-24T20:18:14.505Z,28.95
2019-02-24T20:20:40.823Z,29.00
2019-02-24T20:23:07.196Z,29.07
2019-02-24T20:25:33.609Z,29.05
2019-02-24T20:27:59.987Z,29.25
2019-02-24T20:30:26.308Z,29.21
2019-02-24T20:32:52.635Z,29.14
2019-02-24T20:35:18.965Z,29.21
2019-02-24T20:37:45.310Z,29.18
2019-02-24T20:40:11.699Z,29.40
2019-02-24T20:42:38.041Z,29.24
2019-02-24T20:45:04.478Z,29.16
2019-02-24T20:47:30.807Z,29.15
2019-02-24T20:49:57.157Z,29.31
2019-02-24T20:52:23.546Z,29.24
2019-02-24T20:54:49.909Z,29.32
2019-02-24T20:57:16.230Z,29.43
2019-02-24T20:59:42.579Z,29.33
2019-02-24T21:02:08.969Z,29.44
2019-02-24T21:04:35.350Z,29.47
2019-02-24T21:07:01.688Z,29.27
2019-02-24T21:09:28.057Z,29.31
2019-02-24T21:11:54.384Z,29.28
2019-02-24T21:14:20.747Z,29.41
2019-02-24T21:16:47.117Z,29.49
2019-02-24T21:19:13.461Z,29.56
2019-02-24T21:21:39.804Z,29.41
2019-02-24T21:24:06.190Z,29.56
2019-02-24T21:26:32.513Z,29.51
2019-02-24T21:28:58.915Z,29.40
2019-02-24T21:31:25.205Z,29.59
2019-02-24T21:33:51.537Z,29.57
2019-02-24T21:36:17.931Z,29.39
2019-02-24T21:38:44.300Z,28.92
2019-02-24T21:41:10.631Z,29.24
2019-02-24T21:43:37.076Z,29.24
2019-02-24T21:46:03.435Z,29.68
2019-02-24T21:48:29.814Z,29.52
2019-02-24T21:50:56.167Z,29.54
2019-02-24T21:53:22.502Z,29.33
2019-02-24T21:55:48.835Z,29.50
2019-02-24T21:58:15.390Z,29.71
2019-02-24T22:00:41.825Z,29.76
2019-02-24T22:03:08.184Z,29.85
2019-02-24T22:05:34.529Z,29.92
2019-02-24T22:08:00.863Z,29.71
2019-02-24T22:10:29.406Z,29.84
2019-02-24T22:12:55.754Z,29.77
2019-02-24T22:15:22.105Z,29.82
2019-02-24T22:17:48.468Z,29.85
2019-02-24T22:20:14.827Z,29.78
2019-02-24T22:22:41.234Z,29.85
2019-02-24T22:25:07.646Z,29.71
2019-02-24T22:27:33.995Z,29.64
2019-02-24T22:30:00.332Z,29.83
2019-02-24T22:32:26.680Z,29.68
2019-02-24T22:34:54.082Z,29.69
2019-02-24T22:37:19.416Z,29.76
2019-02-24T22:39:45.752Z,29.85
2019-02-24T22:42:12.132Z,29.92
2019-02-24T22:44:38.550Z,29.77
2019-02-24T22:47:04.929Z,29.80
2019-02-24T22:49:31.270Z,29.79
2019-02-24T22:51:57.725Z,30.01
2019-02-24T22:54:24.095Z,29.80
2019-02-24T22:56:50.422Z,30.13
2019-02-24T22:59:16.769Z,30.12
2019-02-24T23:01:43.131Z,30.25
2019-02-24T23:04:09.570Z,30.21
2019-02-24T23:06:36.029Z,29.95
2019-02-24T23:09:02.394Z,29.95
2019-02-24T23:11:28.748Z,30.10
2019-02-24T23:13:55.121Z,29.74
2019-02-24T23:16:21.482Z,29.92
2019-02-24T23:18:47.867Z,29.95
2019-02-24T23:21:14.202Z,29.79
2019-02-24T23:23:40.551Z,30.05
2019-02-24T23:26:06.901Z,29.76
2019-02-24T23:28:33.267Z,29.82
2019-02-24T23:30:59.640Z,29.82
2019-02-24T23:33:25.983Z,29.97
2019-02-24T23:35:52.312Z,29.89
2019-02-24T23:38:18.718Z,29.82
2019-02-24T23:40:45.015Z,29.93
2019-02-24T23:43:11.429Z,29.94
2019-02-24T23:45:37.837Z,29.76
2019-02-24T23:48:04.115Z,29.95
2019-02-24T23:50:30.451Z,29.89
2019-02-24T23:52:56.782Z,29.83
2019-02-24T23:55:23.173Z,30.11
2019-02-24T23:57:49.533Z,30.31
